sensor_id;sensor_type;location;lat;lon;timestamp;temperature;humidity
60287;DHT22;46141;52.382;5.270;2023-03-01T00:02:20;19.30;58.40
60287;DHT22;46141;52.382;5.270;2023-03-01T00:04:46;19.20;58.90
60287;DHT22;46141;52.382;5.270;2023-03-01T00:07:12;19.20;58.40
60287;DHT22;46141;52.382;5.270;2023-03-01T00:09:37;19.20;58.50
60287;DHT22;46141;52.382;5.270;2023-03-01T00:12:04;19.20;58.40
60287;DHT22;46141;52.382;5.270;2023-03-01T00:14:30;19.20;58.50
60287;DHT22;46141;52.382;5.270;2023-03-01T00:16:56;19.10;58.40
60287;DHT22;46141;52.382;5.270;2023-03-01T00:19:21;19.10;58.40
60287;DHT22;46141;52.382;5.270;2023-03-01T00:21:47;19.10;58.40
60287;DHT22;46141;52.382;5.270;2023-03-01T00:24:13;19.00;58.40
60287;DHT22;46141;52.382;5.270;2023-03-01T00:26:39;19.00;58.40
60287;DHT22;46141;52.382;5.270;2023-03-01T00:29:05;19.00;58.40
60287;DHT22;46141;52.382;5.270;2023-03-01T00:31:34;19.00;58.40
60287;DHT22;46141;52.382;5.270;2023-03-01T00:34:03;19.00;58.50
60287;DHT22;46141;52.382;5.270;2023-03-01T00:36:32;19.00;58.50
60287;DHT22;46141;52.382;5.270;2023-03-01T00:38:58;18.90;58.40
60287;DHT22;46141;52.382;5.270;2023-03-01T00:41:24;18.90;58.40
60287;DHT22;46141;52.382;5.270;2023-03-01T00:43:52;18.90;58.50
60287;DHT22;46141;52.382;5.270;2023-03-01T00:46:21;18.80;58.40
60287;DHT22;46141;52.382;5.270;2023-03-01T00:48:48;18.90;58.50
60287;DHT22;46141;52.382;5.270;2023-03-01T00:51:21;18.80;58.40
60287;DHT22;46141;52.382;5.270;2023-03-01T00:53:50;18.80;58.40
60287;DHT22;46141;52.382;5.270;2023-03-01T00:56:17;18.80;58.40
60287;DHT22;46141;52.382;5.270;2023-03-01T00:58:43;18.70;59.00
60287;DHT22;46141;52.382;5.270;2023-03-01T01:01:18;18.80;58.40
60287;DHT22;46141;52.382;5.270;2023-03-01T01:03:53;18.80;58.30
60287;DHT22;46141;52.382;5.270;2023-03-01T01:06:28;18.70;58.30
60287;DHT22;46141;52.382;5.270;2023-03-01T01:08:56;18.70;58.30
60287;DHT22;46141;52.382;5.270;2023-03-01T01:11:24;18.70;58.30
60287;DHT22;46141;52.382;5.270;2023-03-01T01:13:50;18.60;58.40
60287;DHT22;46141;52.382;5.270;2023-03-01T01:16:17;18.60;58.40
60287;DHT22;46141;52.382;5.270;2023-03-01T01:18:44;18.60;58.40
60287;DHT22;46141;52.382;5.270;2023-03-01T01:21:13;18.50;58.40
60287;DHT22;46141;52.382;5.270;2023-03-01T01:23:41;18.50;58.40
60287;DHT22;46141;52.382;5.270;2023-03-01T01:26:16;18.50;58.40
60287;DHT22;46141;52.382;5.270;2023-03-01T01:28:42;18.50;58.30
60287;DHT22;46141;52.382;5.270;2023-03-01T01:31:08;18.60;58.30
60287;DHT22;46141;52.382;5.270;2023-03-01T01:33:34;18.50;58.30
60287;DHT22;46141;52.382;5.270;2023-03-01T01:36:00;18.50;58.30
60287;DHT22;46141;52.382;5.270;2023-03-01T01:38:26;18.40;58.40
60287;DHT22;46141;52.382;5.270;2023-03-01T01:40:52;18.40;58.30
60287;DHT22;46141;52.382;5.270;2023-03-01T01:45:46;18.40;58.20
60287;DHT22;46141;52.382;5.270;2023-03-01T01:48:21;18.40;58.20
60287;DHT22;46141;52.382;5.270;2023-03-01T01:50:55;18.40;58.20
60287;DHT22;46141;52.382;5.270;2023-03-01T01:53:22;18.30;58.90
60287;DHT22;46141;52.382;5.270;2023-03-01T01:55:53;18.30;58.20
60287;DHT22;46141;52.382;5.270;2023-03-01T01:58:21;18.30;58.20
60287;DHT22;46141;52.382;5.270;2023-03-01T02:00:48;18.30;58.20
60287;DHT22;46141;52.382;5.270;2023-03-01T02:03:23;18.30;58.20
60287;DHT22;46141;52.382;5.270;2023-03-01T02:06:02;18.30;58.20
60287;DHT22;46141;52.382;5.270;2023-03-01T02:08:33;18.30;58.20
60287;DHT22;46141;52.382;5.270;2023-03-01T02:11:01;18.20;58.20
60287;DHT22;46141;52.382;5.270;2023-03-01T02:13:31;18.20;58.10
60287;DHT22;46141;52.382;5.270;2023-03-01T02:15:58;18.20;58.10
60287;DHT22;46141;52.382;5.270;2023-03-01T02:18:25;18.20;58.00
60287;DHT22;46141;52.382;5.270;2023-03-01T02:23:22;18.10;58.10
60287;DHT22;46141;52.382;5.270;2023-03-01T02:30:48;18.10;58.10
60287;DHT22;46141;52.382;5.270;2023-03-01T02:33:35;18.10;58.10
60287;DHT22;46141;52.382;5.270;2023-03-01T02:36:10;18.10;58.20
60287;DHT22;46141;52.382;5.270;2023-03-01T02:38:39;18.10;58.10
60287;DHT22;46141;52.382;5.270;2023-03-01T02:41:07;18.00;58.10
60287;DHT22;46141;52.382;5.270;2023-03-01T02:43:34;18.00;58.10
60287;DHT22;46141;52.382;5.270;2023-03-01T02:46:06;18.00;58.10
60287;DHT22;46141;52.382;5.270;2023-03-01T02:48:42;18.00;58.20
60287;DHT22;46141;52.382;5.270;2023-03-01T02:51:40;17.90;58.10
60287;DHT22;46141;52.382;5.270;2023-03-01T02:56:45;17.90;58.30
60287;DHT22;46141;52.382;5.270;2023-03-01T02:59:18;17.80;58.20
60287;DHT22;46141;52.382;5.270;2023-03-01T03:01:45;17.80;58.20
60287;DHT22;46141;52.382;5.270;2023-03-01T03:04:16;17.80;58.20
60287;DHT22;46141;52.382;5.270;2023-03-01T03:06:48;17.80;58.10
60287;DHT22;46141;52.382;5.270;2023-03-01T03:09:15;17.80;58.30
60287;DHT22;46141;52.382;5.270;2023-03-01T03:11:41;17.80;58.20
60287;DHT22;46141;52.382;5.270;2023-03-01T03:14:10;17.80;58.20
60287;DHT22;46141;52.382;5.270;2023-03-01T03:16:58;17.80;58.20
60287;DHT22;46141;52.382;5.270;2023-03-01T03:19:23;17.70;58.10
60287;DHT22;46141;52.382;5.270;2023-03-01T03:21:49;17.70;58.20
60287;DHT22;46141;52.382;5.270;2023-03-01T03:24:14;17.70;58.20
60287;DHT22;46141;52.382;5.270;2023-03-01T03:26:40;17.70;58.10
60287;DHT22;46141;52.382;5.270;2023-03-01T03:29:06;17.70;58.00
60287;DHT22;46141;52.382;5.270;2023-03-01T03:31:31;17.70;57.90
60287;DHT22;46141;52.382;5.270;2023-03-01T03:33:57;17.70;57.90
60287;DHT22;46141;52.382;5.270;2023-03-01T03:36:25;17.70;57.80
60287;DHT22;46141;52.382;5.270;2023-03-01T03:38:51;17.70;57.80
60287;DHT22;46141;52.382;5.270;2023-03-01T03:41:16;17.70;57.90
60287;DHT22;46141;52.382;5.270;2023-03-01T03:43:43;17.60;57.90
60287;DHT22;46141;52.382;5.270;2023-03-01T03:46:10;17.60;57.90
60287;DHT22;46141;52.382;5.270;2023-03-01T03:48:39;17.60;57.80
60287;DHT22;46141;52.382;5.270;2023-03-01T03:51:05;17.60;57.80
60287;DHT22;46141;52.382;5.270;2023-03-01T03:53:32;17.60;57.80
60287;DHT22;46141;52.382;5.270;2023-03-01T03:55:57;17.60;57.80
60287;DHT22;46141;52.382;5.270;2023-03-01T03:58:25;17.60;57.80
60287;DHT22;46141;52.382;5.270;2023-03-01T04:00:53;17.60;57.70
60287;DHT22;46141;52.382;5.270;2023-03-01T04:03:22;17.50;57.70
60287;DHT22;46141;52.382;5.270;2023-03-01T04:05:48;17.50;57.60
60287;DHT22;46141;52.382;5.270;2023-03-01T04:08:17;17.50;57.70
60287;DHT22;46141;52.382;5.270;2023-03-01T04:10:47;17.50;57.70
60287;DHT22;46141;52.382;5.270;2023-03-01T04:13:16;17.50;57.60
60287;DHT22;46141;52.382;5.270;2023-03-01T04:15:44;17.50;57.60
60287;DHT22;46141;52.382;5.270;2023-03-01T04:18:13;17.50;57.50
60287;DHT22;46141;52.382;5.270;2023-03-01T04:20:39;17.50;57.50
60287;DHT22;46141;52.382;5.270;2023-03-01T04:23:09;17.50;57.50
60287;DHT22;46141;52.382;5.270;2023-03-01T04:25:50;17.50;57.50
60287;DHT22;46141;52.382;5.270;2023-03-01T04:28:31;17.50;57.60
60287;DHT22;46141;52.382;5.270;2023-03-01T04:31:03;17.50;57.50
60287;DHT22;46141;52.382;5.270;2023-03-01T04:33:42;17.50;57.60
60287;DHT22;46141;52.382;5.270;2023-03-01T04:36:10;17.40;57.40
60287;DHT22;46141;52.382;5.270;2023-03-01T04:38:36;17.40;57.40
60287;DHT22;46141;52.382;5.270;2023-03-01T04:41:04;17.40;57.40
60287;DHT22;46141;52.382;5.270;2023-03-01T04:43:30;17.40;57.30
60287;DHT22;46141;52.382;5.270;2023-03-01T04:46:03;17.40;57.30
60287;DHT22;46141;52.382;5.270;2023-03-01T04:48:31;17.40;57.30
60287;DHT22;46141;52.382;5.270;2023-03-01T04:50:58;17.40;57.30
60287;DHT22;46141;52.382;5.270;2023-03-01T04:53:24;17.40;57.30
60287;DHT22;46141;52.382;5.270;2023-03-01T04:55:50;17.40;57.30
60287;DHT22;46141;52.382;5.270;2023-03-01T04:58:16;17.40;57.30
60287;DHT22;46141;52.382;5.270;2023-03-01T05:00:41;17.40;57.30
60287;DHT22;46141;52.382;5.270;2023-03-01T05:03:08;17.40;57.20
60287;DHT22;46141;52.382;5.270;2023-03-01T05:05:37;17.30;57.10
60287;DHT22;46141;52.382;5.270;2023-03-01T05:08:07;17.40;57.10
60287;DHT22;46141;52.382;5.270;2023-03-01T05:10:35;17.40;57.10
60287;DHT22;46141;52.382;5.270;2023-03-01T05:13:03;17.40;57.10
60287;DHT22;46141;52.382;5.270;2023-03-01T05:15:30;17.40;57.10
60287;DHT22;46141;52.382;5.270;2023-03-01T05:17:58;17.30;57.00
60287;DHT22;46141;52.382;5.270;2023-03-01T05:20:29;17.30;57.00
60287;DHT22;46141;52.382;5.270;2023-03-01T05:22:57;17.40;57.00
60287;DHT22;46141;52.382;5.270;2023-03-01T05:25:24;17.40;57.00
60287;DHT22;46141;52.382;5.270;2023-03-01T05:27:50;17.40;57.00
60287;DHT22;46141;52.382;5.270;2023-03-01T05:30:16;17.40;56.90
60287;DHT22;46141;52.382;5.270;2023-03-01T05:32:45;17.30;56.90
60287;DHT22;46141;52.382;5.270;2023-03-01T05:35:13;17.40;56.90
60287;DHT22;46141;52.382;5.270;2023-03-01T05:37:41;17.40;56.90
60287;DHT22;46141;52.382;5.270;2023-03-01T05:40:08;17.30;56.80
60287;DHT22;46141;52.382;5.270;2023-03-01T05:42:47;17.30;56.70
60287;DHT22;46141;52.382;5.270;2023-03-01T05:45:15;17.30;56.80
60287;DHT22;46141;52.382;5.270;2023-03-01T05:47:44;17.30;56.80
60287;DHT22;46141;52.382;5.270;2023-03-01T05:52:45;17.40;56.80
60287;DHT22;46141;52.382;5.270;2023-03-01T05:55:11;17.30;56.70
60287;DHT22;46141;52.382;5.270;2023-03-01T05:57:36;17.30;56.70
60287;DHT22;46141;52.382;5.270;2023-03-01T06:00:02;17.40;56.70
60287;DHT22;46141;52.382;5.270;2023-03-01T06:02:28;17.30;56.60
60287;DHT22;46141;52.382;5.270;2023-03-01T06:04:55;17.30;56.60
60287;DHT22;46141;52.382;5.270;2023-03-01T06:07:20;17.30;56.70
60287;DHT22;46141;52.382;5.270;2023-03-01T06:09:46;17.30;56.60
60287;DHT22;46141;52.382;5.270;2023-03-01T06:12:12;17.40;56.60
60287;DHT22;46141;52.382;5.270;2023-03-01T06:14:37;17.30;56.50
60287;DHT22;46141;52.382;5.270;2023-03-01T06:17:03;17.40;56.60
60287;DHT22;46141;52.382;5.270;2023-03-01T06:19:29;17.30;56.50
60287;DHT22;46141;52.382;5.270;2023-03-01T06:21:54;17.30;56.50
60287;DHT22;46141;52.382;5.270;2023-03-01T06:24:20;17.40;56.50
60287;DHT22;46141;52.382;5.270;2023-03-01T06:26:45;17.30;56.50
60287;DHT22;46141;52.382;5.270;2023-03-01T06:29:11;17.30;56.50
60287;DHT22;46141;52.382;5.270;2023-03-01T06:31:37;17.30;56.40
60287;DHT22;46141;52.382;5.270;2023-03-01T06:34:03;17.30;56.40
60287;DHT22;46141;52.382;5.270;2023-03-01T06:36:28;17.30;56.30
60287;DHT22;46141;52.382;5.270;2023-03-01T06:38:54;17.30;56.20
60287;DHT22;46141;52.382;5.270;2023-03-01T06:41:19;17.40;56.10
60287;DHT22;46141;52.382;5.270;2023-03-01T06:43:45;17.30;56.10
60287;DHT22;46141;52.382;5.270;2023-03-01T06:46:11;17.30;56.20
60287;DHT22;46141;52.382;5.270;2023-03-01T06:48:36;17.30;56.10
60287;DHT22;46141;52.382;5.270;2023-03-01T06:51:03;17.30;56.10
60287;DHT22;46141;52.382;5.270;2023-03-01T06:53:29;17.20;56.00
60287;DHT22;46141;52.382;5.270;2023-03-01T06:55:56;17.30;56.10
60287;DHT22;46141;52.382;5.270;2023-03-01T06:58:22;17.20;56.20
60287;DHT22;46141;52.382;5.270;2023-03-01T07:00:48;17.20;55.80
60287;DHT22;46141;52.382;5.270;2023-03-01T07:03:13;17.20;56.10
60287;DHT22;46141;52.382;5.270;2023-03-01T07:05:39;17.20;56.10
60287;DHT22;46141;52.382;5.270;2023-03-01T07:08:04;17.20;56.10
60287;DHT22;46141;52.382;5.270;2023-03-01T07:10:30;17.30;56.20
60287;DHT22;46141;52.382;5.270;2023-03-01T07:12:59;17.20;56.30
60287;DHT22;46141;52.382;5.270;2023-03-01T07:15:26;17.20;56.30
60287;DHT22;46141;52.382;5.270;2023-03-01T07:17:52;17.30;56.30
60287;DHT22;46141;52.382;5.270;2023-03-01T07:20:19;17.20;56.30
60287;DHT22;46141;52.382;5.270;2023-03-01T07:22:47;17.30;56.50
60287;DHT22;46141;52.382;5.270;2023-03-01T07:25:13;17.30;56.50
60287;DHT22;46141;52.382;5.270;2023-03-01T07:27:39;17.30;56.50
60287;DHT22;46141;52.382;5.270;2023-03-01T07:30:06;17.40;56.60
60287;DHT22;46141;52.382;5.270;2023-03-01T07:32:31;17.30;56.10
60287;DHT22;46141;52.382;5.270;2023-03-01T07:34:57;17.30;55.00
60287;DHT22;46141;52.382;5.270;2023-03-01T07:37:23;17.30;55.40
60287;DHT22;46141;52.382;5.270;2023-03-01T07:39:48;17.30;55.60
60287;DHT22;46141;52.382;5.270;2023-03-01T07:42:14;17.30;56.20
60287;DHT22;46141;52.382;5.270;2023-03-01T07:44:39;17.30;56.30
60287;DHT22;46141;52.382;5.270;2023-03-01T07:47:05;17.40;56.40
60287;DHT22;46141;52.382;5.270;2023-03-01T07:49:31;17.40;56.50
60287;DHT22;46141;52.382;5.270;2023-03-01T07:51:56;17.40;56.50
60287;DHT22;46141;52.382;5.270;2023-03-01T07:54:22;17.40;56.60
60287;DHT22;46141;52.382;5.270;2023-03-01T07:56:48;17.40;56.60
60287;DHT22;46141;52.382;5.270;2023-03-01T07:59:14;17.40;56.60
60287;DHT22;46141;52.382;5.270;2023-03-01T08:01:39;17.40;56.60
60287;DHT22;46141;52.382;5.270;2023-03-01T08:04:05;17.50;56.70
60287;DHT22;46141;52.382;5.270;2023-03-01T08:06:34;17.50;56.70
60287;DHT22;46141;52.382;5.270;2023-03-01T08:09:00;17.50;56.80
60287;DHT22;46141;52.382;5.270;2023-03-01T08:11:25;17.50;56.90
60287;DHT22;46141;52.382;5.270;2023-03-01T08:13:53;17.50;57.00
60287;DHT22;46141;52.382;5.270;2023-03-01T08:16:19;17.50;57.40
60287;DHT22;46141;52.382;5.270;2023-03-01T08:18:45;17.50;57.50
60287;DHT22;46141;52.382;5.270;2023-03-01T08:21:14;17.50;58.10
60287;DHT22;46141;52.382;5.270;2023-03-01T08:23:41;17.60;58.80
60287;DHT22;46141;52.382;5.270;2023-03-01T08:26:16;17.60;59.10
60287;DHT22;46141;52.382;5.270;2023-03-01T08:28:43;17.60;57.30
60287;DHT22;46141;52.382;5.270;2023-03-01T08:33:42;17.70;59.30
60287;DHT22;46141;52.382;5.270;2023-03-01T08:36:08;17.80;59.30
60287;DHT22;46141;52.382;5.270;2023-03-01T08:38:34;17.90;58.90
60287;DHT22;46141;52.382;5.270;2023-03-01T08:41:02;18.00;58.40
60287;DHT22;46141;52.382;5.270;2023-03-01T08:43:28;18.10;58.60
60287;DHT22;46141;52.382;5.270;2023-03-01T08:45:54;18.20;58.00
60287;DHT22;46141;52.382;5.270;2023-03-01T08:48:19;18.30;57.50
60287;DHT22;46141;52.382;5.270;2023-03-01T08:50:46;18.40;57.50
60287;DHT22;46141;52.382;5.270;2023-03-01T08:53:11;18.50;57.50
60287;DHT22;46141;52.382;5.270;2023-03-01T08:55:37;18.60;57.30
60287;DHT22;46141;52.382;5.270;2023-03-01T08:58:03;18.60;57.10
60287;DHT22;46141;52.382;5.270;2023-03-01T09:00:28;18.70;56.90
60287;DHT22;46141;52.382;5.270;2023-03-01T09:02:54;18.90;56.70
60287;DHT22;46141;52.382;5.270;2023-03-01T09:05:19;19.00;56.70
60287;DHT22;46141;52.382;5.270;2023-03-01T09:07:45;19.10;56.50
60287;DHT22;46141;52.382;5.270;2023-03-01T09:10:11;19.10;56.40
60287;DHT22;46141;52.382;5.270;2023-03-01T09:12:37;19.20;56.20
60287;DHT22;46141;52.382;5.270;2023-03-01T09:15:02;19.30;56.20
60287;DHT22;46141;52.382;5.270;2023-03-01T09:17:28;19.50;56.20
60287;DHT22;46141;52.382;5.270;2023-03-01T09:19:54;19.50;56.00
60287;DHT22;46141;52.382;5.270;2023-03-01T09:22:19;19.70;56.00
60287;DHT22;46141;52.382;5.270;2023-03-01T09:24:45;19.70;55.90
60287;DHT22;46141;52.382;5.270;2023-03-01T09:27:11;19.80;55.80
60287;DHT22;46141;52.382;5.270;2023-03-01T09:29:38;20.00;55.70
60287;DHT22;46141;52.382;5.270;2023-03-01T09:32:03;20.00;55.70
60287;DHT22;46141;52.382;5.270;2023-03-01T09:34:29;20.20;55.50
60287;DHT22;46141;52.382;5.270;2023-03-01T09:36:57;20.30;55.50
60287;DHT22;46141;52.382;5.270;2023-03-01T09:39:23;20.30;55.30
60287;DHT22;46141;52.382;5.270;2023-03-01T09:41:59;20.40;55.30
60287;DHT22;46141;52.382;5.270;2023-03-01T09:49:47;20.60;55.30
60287;DHT22;46141;52.382;5.270;2023-03-01T09:54:44;20.70;55.00
60287;DHT22;46141;52.382;5.270;2023-03-01T09:57:42;20.80;54.80
60287;DHT22;46141;52.382;5.270;2023-03-01T10:00:43;20.90;54.80
60287;DHT22;46141;52.382;5.270;2023-03-01T10:06:18;21.10;54.60
60287;DHT22;46141;52.382;5.270;2023-03-01T10:09:02;21.20;54.60
60287;DHT22;46141;52.382;5.270;2023-03-01T10:11:32;21.30;54.60
60287;DHT22;46141;52.382;5.270;2023-03-01T10:14:21;21.30;54.70
60287;DHT22;46141;52.382;5.270;2023-03-01T10:17:01;21.30;54.80
60287;DHT22;46141;52.382;5.270;2023-03-01T10:22:19;21.40;55.30
60287;DHT22;46141;52.382;5.270;2023-03-01T10:24:48;21.50;55.40
60287;DHT22;46141;52.382;5.270;2023-03-01T10:30:13;21.40;55.50
60287;DHT22;46141;52.382;5.270;2023-03-01T10:32:45;21.40;55.60
60287;DHT22;46141;52.382;5.270;2023-03-01T10:38:07;21.40;55.90
60287;DHT22;46141;52.382;5.270;2023-03-01T10:40:35;21.40;56.00
60287;DHT22;46141;52.382;5.270;2023-03-01T10:43:05;21.50;56.00
60287;DHT22;46141;52.382;5.270;2023-03-01T10:45:37;21.50;56.10
60287;DHT22;46141;52.382;5.270;2023-03-01T10:50:34;21.50;56.10
60287;DHT22;46141;52.382;5.270;2023-03-01T10:53:02;21.50;56.00
60287;DHT22;46141;52.382;5.270;2023-03-01T10:55:38;21.50;55.90
60287;DHT22;46141;52.382;5.270;2023-03-01T10:58:19;21.40;55.50
60287;DHT22;46141;52.382;5.270;2023-03-01T11:03:16;21.20;55.80
60287;DHT22;46141;52.382;5.270;2023-03-01T11:06:05;21.30;54.90
60287;DHT22;46141;52.382;5.270;2023-03-01T11:08:41;21.30;54.90
60287;DHT22;46141;52.382;5.270;2023-03-01T11:11:32;21.40;55.10
60287;DHT22;46141;52.382;5.270;2023-03-01T11:14:03;21.40;55.20
60287;DHT22;46141;52.382;5.270;2023-03-01T11:16:39;21.50;55.40
60287;DHT22;46141;52.382;5.270;2023-03-01T11:21:41;21.40;55.50
60287;DHT22;46141;52.382;5.270;2023-03-01T11:24:14;21.50;55.40
60287;DHT22;46141;52.382;5.270;2023-03-01T11:26:44;21.50;55.50
60287;DHT22;46141;52.382;5.270;2023-03-01T11:29:23;21.50;55.60
60287;DHT22;46141;52.382;5.270;2023-03-01T11:31:54;21.50;55.70
60287;DHT22;46141;52.382;5.270;2023-03-01T11:34:34;21.60;55.90
60287;DHT22;46141;52.382;5.270;2023-03-01T11:40:13;21.60;55.90
60287;DHT22;46141;52.382;5.270;2023-03-01T11:42:50;21.70;56.00
60287;DHT22;46141;52.382;5.270;2023-03-01T11:45:17;21.70;56.00
60287;DHT22;46141;52.382;5.270;2023-03-01T11:48:19;21.70;56.00
60287;DHT22;46141;52.382;5.270;2023-03-01T11:50:48;21.70;56.10
60287;DHT22;46141;52.382;5.270;2023-03-01T11:55:51;21.80;56.10
60287;DHT22;46141;52.382;5.270;2023-03-01T12:06:26;21.90;56.30
60287;DHT22;46141;52.382;5.270;2023-03-01T12:17:04;21.90;56.10
60287;DHT22;46141;52.382;5.270;2023-03-01T12:25:31;22.10;56.50
60287;DHT22;46141;52.382;5.270;2023-03-01T12:28:24;22.10;56.40
60287;DHT22;46141;52.382;5.270;2023-03-01T12:50:52;22.40;56.50
60287;DHT22;46141;52.382;5.270;2023-03-01T12:56:25;22.60;56.50
60287;DHT22;46141;52.382;5.270;2023-03-01T13:09:48;22.90;56.90
60287;DHT22;46141;52.382;5.270;2023-03-01T13:13:01;22.90;56.80
60287;DHT22;46141;52.382;5.270;2023-03-01T13:31:10;23.20;56.60
60287;DHT22;46141;52.382;5.270;2023-03-01T13:34:02;23.20;56.50
60287;DHT22;46141;52.382;5.270;2023-03-01T13:39:03;23.30;56.50
60287;DHT22;46141;52.382;5.270;2023-03-01T13:46:59;23.50;56.30
60287;DHT22;46141;52.382;5.270;2023-03-01T13:49:43;23.50;56.40
60287;DHT22;46141;52.382;5.270;2023-03-01T13:52:40;23.50;56.30
60287;DHT22;46141;52.382;5.270;2023-03-01T13:55:25;23.50;56.30
60287;DHT22;46141;52.382;5.270;2023-03-01T13:58:01;23.60;56.30
60287;DHT22;46141;52.382;5.270;2023-03-01T14:00:36;23.50;56.30
60287;DHT22;46141;52.382;5.270;2023-03-01T14:03:17;23.60;56.30
60287;DHT22;46141;52.382;5.270;2023-03-01T14:08:26;23.60;56.00
60287;DHT22;46141;52.382;5.270;2023-03-01T14:14:56;23.70;56.10
60287;DHT22;46141;52.382;5.270;2023-03-01T14:19:59;23.80;56.10
60287;DHT22;46141;52.382;5.270;2023-03-01T14:22:45;23.80;56.00
60287;DHT22;46141;52.382;5.270;2023-03-01T14:25:32;23.80;55.90
60287;DHT22;46141;52.382;5.270;2023-03-01T14:30:52;23.90;55.80
60287;DHT22;46141;52.382;5.270;2023-03-01T14:41:00;24.00;55.90
60287;DHT22;46141;52.382;5.270;2023-03-01T14:43:29;24.00;56.00
60287;DHT22;46141;52.382;5.270;2023-03-01T14:45:56;24.10;55.70
60287;DHT22;46141;52.382;5.270;2023-03-01T14:48:23;24.10;55.60
60287;DHT22;46141;52.382;5.270;2023-03-01T14:50:50;24.20;55.60
60287;DHT22;46141;52.382;5.270;2023-03-01T14:53:24;24.20;55.40
60287;DHT22;46141;52.382;5.270;2023-03-01T14:55:54;24.20;54.00
60287;DHT22;46141;52.382;5.270;2023-03-01T14:58:24;24.10;51.20
60287;DHT22;46141;52.382;5.270;2023-03-01T15:00:56;24.10;52.00
60287;DHT22;46141;52.382;5.270;2023-03-01T15:03:34;24.10;53.60
60287;DHT22;46141;52.382;5.270;2023-03-01T15:06:03;24.10;53.70
60287;DHT22;46141;52.382;5.270;2023-03-01T15:08:31;24.20;54.10
60287;DHT22;46141;52.382;5.270;2023-03-01T15:13:41;24.20;54.10
60287;DHT22;46141;52.382;5.270;2023-03-01T15:16:13;24.20;53.90
60287;DHT22;46141;52.382;5.270;2023-03-01T15:18:49;24.20;53.90
60287;DHT22;46141;52.382;5.270;2023-03-01T15:21:23;24.30;53.90
60287;DHT22;46141;52.382;5.270;2023-03-01T15:24:01;24.40;53.90
60287;DHT22;46141;52.382;5.270;2023-03-01T15:26:31;24.40;53.80
60287;DHT22;46141;52.382;5.270;2023-03-01T15:28:59;24.40;53.70
60287;DHT22;46141;52.382;5.270;2023-03-01T15:31:29;24.50;53.60
60287;DHT22;46141;52.382;5.270;2023-03-01T15:37:00;24.50;53.50
60287;DHT22;46141;52.382;5.270;2023-03-01T15:39:40;24.60;53.50
60287;DHT22;46141;52.382;5.270;2023-03-01T15:45:11;24.60;53.20
60287;DHT22;46141;52.382;5.270;2023-03-01T15:47:55;24.70;53.10
60287;DHT22;46141;52.382;5.270;2023-03-01T15:50:24;24.70;53.10
60287;DHT22;46141;52.382;5.270;2023-03-01T15:52:51;24.70;53.00
60287;DHT22;46141;52.382;5.270;2023-03-01T15:57:45;24.60;53.20
60287;DHT22;46141;52.382;5.270;2023-03-01T16:00:13;24.60;53.10
60287;DHT22;46141;52.382;5.270;2023-03-01T16:02:40;24.50;53.10
60287;DHT22;46141;52.382;5.270;2023-03-01T16:07:41;24.40;53.40
60287;DHT22;46141;52.382;5.270;2023-03-01T16:10:06;24.30;53.40
60287;DHT22;46141;52.382;5.270;2023-03-01T16:12:32;24.20;53.60
60287;DHT22;46141;52.382;5.270;2023-03-01T16:14:58;24.20;52.80
60287;DHT22;46141;52.382;5.270;2023-03-01T16:17:24;24.00;52.70
60287;DHT22;46141;52.382;5.270;2023-03-01T16:19:50;23.90;51.80
60287;DHT22;46141;52.382;5.270;2023-03-01T16:22:15;23.80;51.00
60287;DHT22;46141;52.382;5.270;2023-03-01T16:24:41;23.70;51.10
60287;DHT22;46141;52.382;5.270;2023-03-01T16:27:06;23.60;51.20
60287;DHT22;46141;52.382;5.270;2023-03-01T16:29:33;23.50;51.30
60287;DHT22;46141;52.382;5.270;2023-03-01T16:32:02;23.40;51.80
60287;DHT22;46141;52.382;5.270;2023-03-01T16:34:28;23.30;51.60
60287;DHT22;46141;52.382;5.270;2023-03-01T16:36:54;23.20;52.20
60287;DHT22;46141;52.382;5.270;2023-03-01T16:39:19;23.20;53.40
60287;DHT22;46141;52.382;5.270;2023-03-01T16:41:45;23.20;53.60
60287;DHT22;46141;52.382;5.270;2023-03-01T16:44:10;23.10;53.80
60287;DHT22;46141;52.382;5.270;2023-03-01T16:46:36;23.10;53.90
60287;DHT22;46141;52.382;5.270;2023-03-01T16:49:02;23.10;54.40
60287;DHT22;46141;52.382;5.270;2023-03-01T16:51:28;23.00;54.30
60287;DHT22;46141;52.382;5.270;2023-03-01T16:53:55;22.90;54.30
60287;DHT22;46141;52.382;5.270;2023-03-01T16:56:21;22.90;54.30
60287;DHT22;46141;52.382;5.270;2023-03-01T16:58:47;22.80;53.90
60287;DHT22;46141;52.382;5.270;2023-03-01T17:01:18;22.80;51.80
60287;DHT22;46141;52.382;5.270;2023-03-01T17:03:46;22.70;51.20
60287;DHT22;46141;52.382;5.270;2023-03-01T17:06:14;22.60;51.30
60287;DHT22;46141;52.382;5.270;2023-03-01T17:08:41;22.60;51.10
60287;DHT22;46141;52.382;5.270;2023-03-01T17:11:12;22.50;51.40
60287;DHT22;46141;52.382;5.270;2023-03-01T17:13:39;22.40;52.30
60287;DHT22;46141;52.382;5.270;2023-03-01T17:16:06;22.40;53.10
60287;DHT22;46141;52.382;5.270;2023-03-01T17:18:33;22.30;53.10
60287;DHT22;46141;52.382;5.270;2023-03-01T17:20:59;22.30;53.30
60287;DHT22;46141;52.382;5.270;2023-03-01T17:23:26;22.20;53.10
60287;DHT22;46141;52.382;5.270;2023-03-01T17:25:53;22.20;53.10
60287;DHT22;46141;52.382;5.270;2023-03-01T17:28:24;22.10;53.50
60287;DHT22;46141;52.382;5.270;2023-03-01T17:30:51;22.10;53.70
60287;DHT22;46141;52.382;5.270;2023-03-01T17:33:17;22.00;53.90
60287;DHT22;46141;52.382;5.270;2023-03-01T17:35:43;22.00;54.60
60287;DHT22;46141;52.382;5.270;2023-03-01T17:38:14;21.90;54.90
60287;DHT22;46141;52.382;5.270;2023-03-01T17:40:41;21.90;55.20
60287;DHT22;46141;52.382;5.270;2023-03-01T17:43:08;21.90;55.40
60287;DHT22;46141;52.382;5.270;2023-03-01T17:45:36;21.80;55.40
60287;DHT22;46141;52.382;5.270;2023-03-01T17:48:02;21.80;55.60
60287;DHT22;46141;52.382;5.270;2023-03-01T17:50:27;21.80;55.70
60287;DHT22;46141;52.382;5.270;2023-03-01T17:52:53;21.70;55.80
60287;DHT22;46141;52.382;5.270;2023-03-01T17:55:20;21.70;55.90
60287;DHT22;46141;52.382;5.270;2023-03-01T17:57:47;21.60;56.20
60287;DHT22;46141;52.382;5.270;2023-03-01T18:00:14;21.60;56.00
60287;DHT22;46141;52.382;5.270;2023-03-01T18:02:42;21.60;55.90
60287;DHT22;46141;52.382;5.270;2023-03-01T18:05:09;21.60;55.90
60287;DHT22;46141;52.382;5.270;2023-03-01T18:07:35;21.50;56.00
60287;DHT22;46141;52.382;5.270;2023-03-01T18:10:02;21.50;56.20
60287;DHT22;46141;52.382;5.270;2023-03-01T18:12:27;21.50;56.40
60287;DHT22;46141;52.382;5.270;2023-03-01T18:14:53;21.40;56.40
60287;DHT22;46141;52.382;5.270;2023-03-01T18:17:23;21.40;56.50
60287;DHT22;46141;52.382;5.270;2023-03-01T18:19:50;21.40;56.70
60287;DHT22;46141;52.382;5.270;2023-03-01T18:22:16;21.30;56.80
60287;DHT22;46141;52.382;5.270;2023-03-01T18:24:42;21.30;56.80
60287;DHT22;46141;52.382;5.270;2023-03-01T18:27:09;21.30;56.90